sensor_id;sensor_type;location;lat;lon;timestamp;P1;durP1;ratioP1;P2;durP2;ratioP2
13566;SDS011;6855;48.112;11.298;2023-04-15T00:01:21;7.97;;;2.10;;
13566;SDS011;6855;48.112;11.298;2023-04-15T00:03:49;2.87;;;1.87;;
13566;SDS011;6855;48.112;11.298;2023-04-15T00:06:17;4.00;;;1.47;;
13566;SDS011;6855;48.112;11.298;2023-04-15T00:08:45;10.60;;;3.43;;
13566;SDS011;6855;48.112;11.298;2023-04-15T00:11:14;6.60;;;2.23;;
13566;SDS011;6855;48.112;11.298;2023-04-15T00:13:41;3.67;;;2.13;;
13566;SDS011;6855;48.112;11.298;2023-04-15T00:16:08;4.00;;;2.17;;
13566;SDS011;6855;48.112;11.298;2023-04-15T00:18:36;7.03;;;2.43;;
13566;SDS011;6855;48.112;11.298;2023-04-15T00:21:03;8.70;;;2.17;;
13566;SDS011;6855;48.112;11.298;2023-04-15T00:23:31;2.10;;;1.60;;
13566;SDS011;6855;48.112;11.298;2023-04-15T00:25:58;4.77;;;2.07;;
13566;SDS011;6855;48.112;11.298;2023-04-15T00:28:27;6.77;;;1.83;;
13566;SDS011;6855;48.112;11.298;2023-04-15T00:30:55;2.30;;;1.67;;
13566;SDS011;6855;48.112;11.298;2023-04-15T00:33:22;5.63;;;2.20;;
13566;SDS011;6855;48.112;11.298;2023-04-15T00:35:49;3.37;;;2.10;;
13566;SDS011;6855;48.112;11.298;2023-04-15T00:38:16;3.83;;;2.07;;
13566;SDS011;6855;48.112;11.298;2023-04-15T00:40:44;3.23;;;2.00;;
13566;SDS011;6855;48.112;11.298;2023-04-15T00:43:11;6.00;;;2.23;;
13566;SDS011;6855;48.112;11.298;2023-04-15T00:45:40;6.87;;;1.77;;
13566;SDS011;6855;48.112;11.298;2023-04-15T00:48:07;3.90;;;1.93;;
13566;SDS011;6855;48.112;11.298;2023-04-15T00:50:34;4.70;;;2.20;;
13566;SDS011;6855;48.112;11.298;2023-04-15T00:53:01;3.87;;;1.63;;
13566;SDS011;6855;48.112;11.298;2023-04-15T00:55:29;4.00;;;1.90;;
13566;SDS011;6855;48.112;11.298;2023-04-15T00:57:56;4.00;;;1.90;;
13566;SDS011;6855;48.112;11.298;2023-04-15T01:00:23;7.97;;;2.00;;
13566;SDS011;6855;48.112;11.298;2023-04-15T01:02:52;6.00;;;2.80;;
13566;SDS011;6855;48.112;11.298;2023-04-15T01:05:19;5.97;;;2.03;;
13566;SDS011;6855;48.112;11.298;2023-04-15T01:07:46;3.30;;;1.97;;
13566;SDS011;6855;48.112;11.298;2023-04-15T01:10:13;5.60;;;1.70;;
13566;SDS011;6855;48.112;11.298;2023-04-15T01:12:41;7.23;;;2.40;;
13566;SDS011;6855;48.112;11.298;2023-04-15T01:15:08;4.27;;;2.07;;
13566;SDS011;6855;48.112;11.298;2023-04-15T01:17:36;7.63;;;2.40;;
13566;SDS011;6855;48.112;11.298;2023-04-15T01:20:05;2.50;;;2.20;;
13566;SDS011;6855;48.112;11.298;2023-04-15T01:22:34;2.50;;;1.90;;
13566;SDS011;6855;48.112;11.298;2023-04-15T01:25:04;3.60;;;2.30;;
13566;SDS011;6855;48.112;11.298;2023-04-15T01:27:33;11.40;;;2.33;;
13566;SDS011;6855;48.112;11.298;2023-04-15T01:30:01;3.10;;;2.10;;
13566;SDS011;6855;48.112;11.298;2023-04-15T01:32:29;3.03;;;2.03;;
13566;SDS011;6855;48.112;11.298;2023-04-15T01:34:56;5.53;;;2.40;;
13566;SDS011;6855;48.112;11.298;2023-04-15T01:37:23;6.43;;;2.13;;
13566;SDS011;6855;48.112;11.298;2023-04-15T01:39:51;5.03;;;1.80;;
13566;SDS011;6855;48.112;11.298;2023-04-15T01:42:20;3.97;;;2.20;;
13566;SDS011;6855;48.112;11.298;2023-04-15T01:44:48;5.23;;;2.70;;
13566;SDS011;6855;48.112;11.298;2023-04-15T01:47:16;4.87;;;2.37;;
13566;SDS011;6855;48.112;11.298;2023-04-15T01:49:43;5.37;;;2.20;;
13566;SDS011;6855;48.112;11.298;2023-04-15T01:52:10;4.93;;;1.90;;
13566;SDS011;6855;48.112;11.298;2023-04-15T01:54:38;4.87;;;2.10;;
13566;SDS011;6855;48.112;11.298;2023-04-15T01:57:05;6.70;;;1.87;;
13566;SDS011;6855;48.112;11.298;2023-04-15T01:59:33;3.97;;;2.10;;
13566;SDS011;6855;48.112;11.298;2023-04-15T02:02:02;2.67;;;1.87;;
13566;SDS011;6855;48.112;11.298;2023-04-15T02:04:29;3.17;;;2.10;;
13566;SDS011;6855;48.112;11.298;2023-04-15T02:06:56;4.07;;;2.07;;
13566;SDS011;6855;48.112;11.298;2023-04-15T02:09:24;3.20;;;1.83;;
13566;SDS011;6855;48.112;11.298;2023-04-15T02:11:51;8.63;;;2.17;;
13566;SDS011;6855;48.112;11.298;2023-04-15T02:14:18;5.50;;;2.73;;
13566;SDS011;6855;48.112;11.298;2023-04-15T02:16:46;7.23;;;2.00;;
13566;SDS011;6855;48.112;11.298;2023-04-15T02:19:14;13.60;;;3.40;;
13566;SDS011;6855;48.112;11.298;2023-04-15T02:21:41;7.50;;;1.97;;
13566;SDS011;6855;48.112;11.298;2023-04-15T02:24:09;2.63;;;1.93;;
13566;SDS011;6855;48.112;11.298;2023-04-15T02:26:36;4.03;;;1.80;;
13566;SDS011;6855;48.112;11.298;2023-04-15T02:29:04;4.57;;;1.87;;
13566;SDS011;6855;48.112;11.298;2023-04-15T02:31:31;3.57;;;2.07;;
13566;SDS011;6855;48.112;11.298;2023-04-15T02:34:01;4.60;;;2.00;;
13566;SDS011;6855;48.112;11.298;2023-04-15T02:36:30;4.77;;;2.07;;
13566;SDS011;6855;48.112;11.298;2023-04-15T02:38:58;4.33;;;1.80;;
13566;SDS011;6855;48.112;11.298;2023-04-15T02:41:25;3.47;;;2.20;;
13566;SDS011;6855;48.112;11.298;2023-04-15T02:43:54;6.43;;;2.17;;
13566;SDS011;6855;48.112;11.298;2023-04-15T02:46:21;3.70;;;1.80;;
13566;SDS011;6855;48.112;11.298;2023-04-15T02:48:48;2.97;;;2.20;;
13566;SDS011;6855;48.112;11.298;2023-04-15T02:51:18;4.17;;;1.70;;
13566;SDS011;6855;48.112;11.298;2023-04-15T02:53:47;5.27;;;2.10;;
13566;SDS011;6855;48.112;11.298;2023-04-15T02:56:14;2.63;;;1.60;;
13566;SDS011;6855;48.112;11.298;2023-04-15T02:58:43;6.30;;;2.10;;
13566;SDS011;6855;48.112;11.298;2023-04-15T03:01:11;4.37;;;1.87;;
13566;SDS011;6855;48.112;11.298;2023-04-15T03:03:38;4.07;;;2.00;;
13566;SDS011;6855;48.112;11.298;2023-04-15T03:06:05;3.10;;;1.80;;
13566;SDS011;6855;48.112;11.298;2023-04-15T03:08:33;3.33;;;1.80;;
13566;SDS011;6855;48.112;11.298;2023-04-15T03:11:02;4.43;;;1.73;;
13566;SDS011;6855;48.112;11.298;2023-04-15T03:13:30;7.93;;;1.50;;
13566;SDS011;6855;48.112;11.298;2023-04-15T03:15:57;2.50;;;1.60;;
13566;SDS011;6855;48.112;11.298;2023-04-15T03:18:24;11.63;;;3.40;;
13566;SDS011;6855;48.112;11.298;2023-04-15T03:20:53;3.20;;;1.63;;
13566;SDS011;6855;48.112;11.298;2023-04-15T03:23:20;3.63;;;2.13;;
13566;SDS011;6855;48.112;11.298;2023-04-15T03:25:47;5.07;;;1.77;;
13566;SDS011;6855;48.112;11.298;2023-04-15T03:28:16;3.23;;;2.00;;
13566;SDS011;6855;48.112;11.298;2023-04-15T03:30:43;9.57;;;1.80;;
13566;SDS011;6855;48.112;11.298;2023-04-15T03:33:10;6.60;;;1.73;;
13566;SDS011;6855;48.112;11.298;2023-04-15T03:35:38;2.27;;;1.43;;
13566;SDS011;6855;48.112;11.298;2023-04-15T03:38:05;6.00;;;2.00;;
13566;SDS011;6855;48.112;11.298;2023-04-15T03:40:32;3.83;;;1.70;;
13566;SDS011;6855;48.112;11.298;2023-04-15T03:42:59;2.13;;;1.33;;
13566;SDS011;6855;48.112;11.298;2023-04-15T03:45:28;12.30;;;1.70;;
13566;SDS011;6855;48.112;11.298;2023-04-15T03:47:55;3.40;;;1.57;;
13566;SDS011;6855;48.112;11.298;2023-04-15T03:50:22;5.03;;;1.70;;
13566;SDS011;6855;48.112;11.298;2023-04-15T03:52:49;4.20;;;1.60;;
13566;SDS011;6855;48.112;11.298;2023-04-15T03:55:17;2.47;;;1.57;;
13566;SDS011;6855;48.112;11.298;2023-04-15T03:57:44;7.37;;;1.73;;
13566;SDS011;6855;48.112;11.298;2023-04-15T04:00:11;3.90;;;1.53;;
13566;SDS011;6855;48.112;11.298;2023-04-15T04:02:40;2.60;;;1.40;;
13566;SDS011;6855;48.112;11.298;2023-04-15T04:05:07;4.40;;;1.73;;
13566;SDS011;6855;48.112;11.298;2023-04-15T04:07:34;6.60;;;1.33;;
13566;SDS011;6855;48.112;11.298;2023-04-15T04:10:02;4.10;;;1.33;;
13566;SDS011;6855;48.112;11.298;2023-04-15T04:12:30;2.13;;;1.40;;
13566;SDS011;6855;48.112;11.298;2023-04-15T04:14:57;4.30;;;1.80;;
13566;SDS011;6855;48.112;11.298;2023-04-15T04:17:24;2.40;;;1.50;;
13566;SDS011;6855;48.112;11.298;2023-04-15T04:19:53;2.80;;;1.67;;
13566;SDS011;6855;48.112;11.298;2023-04-15T04:22:21;4.57;;;1.70;;
13566;SDS011;6855;48.112;11.298;2023-04-15T04:24:49;4.13;;;1.60;;
13566;SDS011;6855;48.112;11.298;2023-04-15T04:27:16;8.63;;;1.53;;
13566;SDS011;6855;48.112;11.298;2023-04-15T04:29:43;5.27;;;1.30;;
13566;SDS011;6855;48.112;11.298;2023-04-15T04:32:11;4.20;;;1.83;;
13566;SDS011;6855;48.112;11.298;2023-04-15T04:34:39;2.33;;;1.40;;
13566;SDS011;6855;48.112;11.298;2023-04-15T04:37:07;4.80;;;1.63;;
13566;SDS011;6855;48.112;11.298;2023-04-15T04:39:35;6.73;;;1.27;;
13566;SDS011;6855;48.112;11.298;2023-04-15T04:42:02;4.00;;;1.50;;
13566;SDS011;6855;48.112;11.298;2023-04-15T04:44:29;2.33;;;1.53;;
13566;SDS011;6855;48.112;11.298;2023-04-15T04:47:00;7.37;;;1.60;;
13566;SDS011;6855;48.112;11.298;2023-04-15T04:49:27;4.90;;;1.87;;
13566;SDS011;6855;48.112;11.298;2023-04-15T04:51:55;2.30;;;1.40;;
13566;SDS011;6855;48.112;11.298;2023-04-15T04:54:24;3.20;;;1.50;;
13566;SDS011;6855;48.112;11.298;2023-04-15T04:56:52;2.97;;;1.77;;
13566;SDS011;6855;48.112;11.298;2023-04-15T04:59:19;2.70;;;1.40;;
13566;SDS011;6855;48.112;11.298;2023-04-15T05:01:46;4.67;;;1.17;;
13566;SDS011;6855;48.112;11.298;2023-04-15T05:04:13;6.00;;;1.73;;
13566;SDS011;6855;48.112;11.298;2023-04-15T05:06:41;2.47;;;1.27;;
13566;SDS011;6855;48.112;11.298;2023-04-15T05:09:08;2.60;;;1.50;;
13566;SDS011;6855;48.112;11.298;2023-04-15T05:11:37;9.80;;;1.93;;
13566;SDS011;6855;48.112;11.298;2023-04-15T05:14:04;7.23;;;1.50;;
13566;SDS011;6855;48.112;11.298;2023-04-15T05:16:31;2.30;;;1.03;;
13566;SDS011;6855;48.112;11.298;2023-04-15T05:18:58;3.60;;;1.60;;
13566;SDS011;6855;48.112;11.298;2023-04-15T05:21:25;3.57;;;1.33;;
13566;SDS011;6855;48.112;11.298;2023-04-15T05:23:53;1.83;;;1.30;;
13566;SDS011;6855;48.112;11.298;2023-04-15T05:26:20;3.40;;;1.07;;
13566;SDS011;6855;48.112;11.298;2023-04-15T05:28:49;1.27;;;1.17;;
13566;SDS011;6855;48.112;11.298;2023-04-15T05:31:16;2.33;;;1.10;;
13566;SDS011;6855;48.112;11.298;2023-04-15T05:33:44;3.40;;;1.33;;
13566;SDS011;6855;48.112;11.298;2023-04-15T05:36:12;3.90;;;1.20;;
13566;SDS011;6855;48.112;11.298;2023-04-15T05:38:39;4.17;;;1.27;;
13566;SDS011;6855;48.112;11.298;2023-04-15T05:41:07;2.90;;;1.23;;
13566;SDS011;6855;48.112;11.298;2023-04-15T05:43:34;5.03;;;1.50;;
13566;SDS011;6855;48.112;11.298;2023-04-15T05:46:03;8.23;;;1.53;;
13566;SDS011;6855;48.112;11.298;2023-04-15T05:48:30;5.33;;;1.53;;
13566;SDS011;6855;48.112;11.298;2023-04-15T05:50:57;5.47;;;1.60;;
13566;SDS011;6855;48.112;11.298;2023-04-15T05:53:24;3.40;;;1.33;;
13566;SDS011;6855;48.112;11.298;2023-04-15T05:55:51;2.90;;;1.50;;
13566;SDS011;6855;48.112;11.298;2023-04-15T05:58:19;3.53;;;1.27;;
13566;SDS011;6855;48.112;11.298;2023-04-15T06:00:46;3.30;;;1.23;;
13566;SDS011;6855;48.112;11.298;2023-04-15T06:03:14;1.70;;;1.23;;
13566;SDS011;6855;48.112;11.298;2023-04-15T06:05:42;1.30;;;1.00;;
13566;SDS011;6855;48.112;11.298;2023-04-15T06:08:09;2.37;;;1.40;;
13566;SDS011;6855;48.112;11.298;2023-04-15T06:10:36;4.93;;;1.33;;
13566;SDS011;6855;48.112;11.298;2023-04-15T06:13:04;4.83;;;1.23;;
13566;SDS011;6855;48.112;11.298;2023-04-15T06:15:31;2.87;;;1.23;;
13566;SDS011;6855;48.112;11.298;2023-04-15T06:17:58;5.20;;;1.40;;
13566;SDS011;6855;48.112;11.298;2023-04-15T06:20:27;2.50;;;1.27;;
13566;SDS011;6855;48.112;11.298;2023-04-15T06:22:54;5.30;;;1.20;;
13566;SDS011;6855;48.112;11.298;2023-04-15T06:25:21;3.47;;;1.33;;
13566;SDS011;6855;48.112;11.298;2023-04-15T06:27:48;2.20;;;1.17;;
13566;SDS011;6855;48.112;11.298;2023-04-15T06:30:15;1.87;;;1.50;;
13566;SDS011;6855;48.112;11.298;2023-04-15T06:32:43;1.60;;;0.93;;
13566;SDS011;6855;48.112;11.298;2023-04-15T06:35:10;2.27;;;1.10;;
13566;SDS011;6855;48.112;11.298;2023-04-15T06:37:42;5.40;;;1.27;;
13566;SDS011;6855;48.112;11.298;2023-04-15T06:40:09;6.30;;;1.57;;
13566;SDS011;6855;48.112;11.298;2023-04-15T06:42:39;1.93;;;0.90;;
13566;SDS011;6855;48.112;11.298;2023-04-15T06:45:07;2.30;;;1.03;;
13566;SDS011;6855;48.112;11.298;2023-04-15T06:47:34;1.70;;;0.93;;
13566;SDS011;6855;48.112;11.298;2023-04-15T06:50:01;2.60;;;1.10;;
13566;SDS011;6855;48.112;11.298;2023-04-15T06:52:29;2.50;;;1.13;;
13566;SDS011;6855;48.112;11.298;2023-04-15T06:54:57;1.13;;;1.03;;
13566;SDS011;6855;48.112;11.298;2023-04-15T06:57:25;3.03;;;1.00;;
13566;SDS011;6855;48.112;11.298;2023-04-15T06:59:52;4.33;;;1.20;;
13566;SDS011;6855;48.112;11.298;2023-04-15T07:02:20;4.27;;;1.30;;
13566;SDS011;6855;48.112;11.298;2023-04-15T07:04:47;3.93;;;1.40;;
13566;SDS011;6855;48.112;11.298;2023-04-15T07:07:15;3.90;;;2.20;;
13566;SDS011;6855;48.112;11.298;2023-04-15T07:09:42;2.73;;;1.13;;
13566;SDS011;6855;48.112;11.298;2023-04-15T07:12:11;1.83;;;1.00;;
13566;SDS011;6855;48.112;11.298;2023-04-15T07:14:38;3.83;;;1.10;;
13566;SDS011;6855;48.112;11.298;2023-04-15T07:17:05;2.30;;;1.17;;
13566;SDS011;6855;48.112;11.298;2023-04-15T07:19:32;5.53;;;1.23;;
13566;SDS011;6855;48.112;11.298;2023-04-15T07:21:59;2.67;;;1.07;;
13566;SDS011;6855;48.112;11.298;2023-04-15T07:24:27;2.00;;;1.10;;
13566;SDS011;6855;48.112;11.298;2023-04-15T07:26:54;2.30;;;1.10;;
13566;SDS011;6855;48.112;11.298;2023-04-15T07:29:24;2.57;;;1.00;;
13566;SDS011;6855;48.112;11.298;2023-04-15T07:31:51;2.53;;;1.30;;
13566;SDS011;6855;48.112;11.298;2023-04-15T07:34:18;2.40;;;1.27;;
13566;SDS011;6855;48.112;11.298;2023-04-15T07:36:45;5.73;;;1.53;;
13566;SDS011;6855;48.112;11.298;2023-04-15T07:39:14;4.00;;;1.30;;
13566;SDS011;6855;48.112;11.298;2023-04-15T07:41:41;3.60;;;1.00;;
13566;SDS011;6855;48.112;11.298;2023-04-15T07:44:08;2.00;;;0.70;;
13566;SDS011;6855;48.112;11.298;2023-04-15T07:46:37;1.07;;;0.87;;
13566;SDS011;6855;48.112;11.298;2023-04-15T07:49:04;6.73;;;1.17;;
13566;SDS011;6855;48.112;11.298;2023-04-15T07:51:31;1.53;;;1.07;;
13566;SDS011;6855;48.112;11.298;2023-04-15T07:53:58;3.60;;;1.30;;
13566;SDS011;6855;48.112;11.298;2023-04-15T07:56:27;1.40;;;0.80;;
13566;SDS011;6855;48.112;11.298;2023-04-15T07:58:54;2.87;;;1.63;;
13566;SDS011;6855;48.112;11.298;2023-04-15T08:01:21;1.90;;;1.27;;
13566;SDS011;6855;48.112;11.298;2023-04-15T08:03:50;1.30;;;0.90;;
13566;SDS011;6855;48.112;11.298;2023-04-15T08:06:17;3.13;;;0.93;;
13566;SDS011;6855;48.112;11.298;2023-04-15T08:08:44;2.07;;;1.17;;
13566;SDS011;6855;48.112;11.298;2023-04-15T08:11:11;1.43;;;1.10;;
13566;SDS011;6855;48.112;11.298;2023-04-15T08:13:39;3.97;;;1.10;;
13566;SDS011;6855;48.112;11.298;2023-04-15T08:16:13;2.67;;;1.20;;
13566;SDS011;6855;48.112;11.298;2023-04-15T08:18:40;2.40;;;1.27;;
13566;SDS011;6855;48.112;11.298;2023-04-15T08:21:09;3.07;;;1.50;;
13566;SDS011;6855;48.112;11.298;2023-04-15T08:23:36;2.47;;;1.20;;
13566;SDS011;6855;48.112;11.298;2023-04-15T08:26:04;2.17;;;1.60;;
13566;SDS011;6855;48.112;11.298;2023-04-15T08:28:31;2.30;;;1.50;;
13566;SDS011;6855;48.112;11.298;2023-04-15T08:30:58;3.63;;;1.47;;
13566;SDS011;6855;48.112;11.298;2023-04-15T08:33:26;1.73;;;1.33;;
13566;SDS011;6855;48.112;11.298;2023-04-15T08:35:53;2.67;;;1.43;;
13566;SDS011;6855;48.112;11.298;2023-04-15T08:38:22;2.33;;;1.23;;
13566;SDS011;6855;48.112;11.298;2023-04-15T08:40:49;3.03;;;1.60;;
13566;SDS011;6855;48.112;11.298;2023-04-15T08:43:18;1.73;;;1.43;;
13566;SDS011;6855;48.112;11.298;2023-04-15T08:45:48;5.20;;;1.37;;
13566;SDS011;6855;48.112;11.298;2023-04-15T08:48:16;3.73;;;1.53;;
13566;SDS011;6855;48.112;11.298;2023-04-15T08:50:44;2.50;;;1.00;;
13566;SDS011;6855;48.112;11.298;2023-04-15T08:53:11;5.30;;;1.77;;
13566;SDS011;6855;48.112;11.298;2023-04-15T08:55:42;4.30;;;1.47;;
13566;SDS011;6855;48.112;11.298;2023-04-15T08:58:10;4.03;;;1.37;;
13566;SDS011;6855;48.112;11.298;2023-04-15T09:00:37;4.17;;;2.03;;
13566;SDS011;6855;48.112;11.298;2023-04-15T09:03:04;2.60;;;1.60;;
13566;SDS011;6855;48.112;11.298;2023-04-15T09:05:32;2.73;;;1.33;;
13566;SDS011;6855;48.112;11.298;2023-04-15T09:07:59;3.40;;;1.60;;
13566;SDS011;6855;48.112;11.298;2023-04-15T09:10:27;3.70;;;2.37;;
13566;SDS011;6855;48.112;11.298;2023-04-15T09:12:56;4.37;;;2.40;;
13566;SDS011;6855;48.112;11.298;2023-04-15T09:15:24;3.37;;;1.80;;
13566;SDS011;6855;48.112;11.298;2023-04-15T09:17:53;3.30;;;1.50;;
13566;SDS011;6855;48.112;11.298;2023-04-15T09:20:20;3.63;;;1.80;;
13566;SDS011;6855;48.112;11.298;2023-04-15T09:22:48;3.43;;;2.50;;
13566;SDS011;6855;48.112;11.298;2023-04-15T09:25:25;2.20;;;1.60;;
13566;SDS011;6855;48.112;11.298;2023-04-15T09:27:54;2.87;;;1.80;;
13566;SDS011;6855;48.112;11.298;2023-04-15T09:30:23;5.07;;;2.10;;
13566;SDS011;6855;48.112;11.298;2023-04-15T09:32:51;10.53;;;2.20;;
13566;SDS011;6855;48.112;11.298;2023-04-15T09:35:19;3.53;;;1.80;;
13566;SDS011;6855;48.112;11.298;2023-04-15T09:37:46;5.97;;;1.73;;
13566;SDS011;6855;48.112;11.298;2023-04-15T09:40:13;2.83;;;1.80;;
13566;SDS011;6855;48.112;11.298;2023-04-15T09:42:53;6.63;;;1.90;;
13566;SDS011;6855;48.112;11.298;2023-04-15T09:45:21;3.13;;;1.67;;
13566;SDS011;6855;48.112;11.298;2023-04-15T09:47:49;3.43;;;1.77;;
13566;SDS011;6855;48.112;11.298;2023-04-15T09:50:17;1.90;;;1.70;;
13566;SDS011;6855;48.112;11.298;2023-04-15T09:52:45;4.90;;;1.77;;
13566;SDS011;6855;48.112;11.298;2023-04-15T09:55:12;2.07;;;1.60;;
13566;SDS011;6855;48.112;11.298;2023-04-15T09:57:40;4.50;;;1.97;;
13566;SDS011;6855;48.112;11.298;2023-04-15T10:00:08;3.23;;;2.13;;
13566;SDS011;6855;48.112;11.298;2023-04-15T10:02:36;5.53;;;1.83;;
13566;SDS011;6855;48.112;11.298;2023-04-15T10:05:05;3.70;;;2.20;;
13566;SDS011;6855;48.112;11.298;2023-04-15T10:07:32;7.17;;;2.03;;
13566;SDS011;6855;48.112;11.298;2023-04-15T10:10:00;4.03;;;2.47;;
13566;SDS011;6855;48.112;11.298;2023-04-15T10:12:27;3.80;;;2.13;;
13566;SDS011;6855;48.112;11.298;2023-04-15T10:14:55;2.83;;;2.40;;
13566;SDS011;6855;48.112;11.298;2023-04-15T10:17:24;3.80;;;2.00;;
13566;SDS011;6855;48.112;11.298;2023-04-15T10:19:53;3.20;;;2.00;;
13566;SDS011;6855;48.112;11.298;2023-04-15T10:22:22;3.47;;;2.10;;
13566;SDS011;6855;48.112;11.298;2023-04-15T10:24:50;3.90;;;1.90;;
13566;SDS011;6855;48.112;11.298;2023-04-15T10:27:18;3.53;;;2.40;;
13566;SDS011;6855;48.112;11.298;2023-04-15T10:29:46;4.00;;;2.10;;
13566;SDS011;6855;48.112;11.298;2023-04-15T10:32:14;6.60;;;1.90;;
13566;SDS011;6855;48.112;11.298;2023-04-15T10:34:42;2.30;;;1.80;;
13566;SDS011;6855;48.112;11.298;2023-04-15T10:37:09;3.50;;;1.50;;
13566;SDS011;6855;48.112;11.298;2023-04-15T10:39:38;2.43;;;1.70;;
13566;SDS011;6855;48.112;11.298;2023-04-15T10:42:07;2.53;;;1.70;;
13566;SDS011;6855;48.112;11.298;2023-04-15T10:44:34;2.10;;;1.77;;
13566;SDS011;6855;48.112;11.298;2023-04-15T10:47:05;4.03;;;2.07;;
13566;SDS011;6855;48.112;11.298;2023-04-15T10:49:41;4.40;;;1.70;;
13566;SDS011;6855;48.112;11.298;2023-04-15T10:52:10;5.50;;;2.30;;
13566;SDS011;6855;48.112;11.298;2023-04-15T10:54:39;3.50;;;2.30;;
13566;SDS011;6855;48.112;11.298;2023-04-15T10:57:07;2.50;;;1.77;;
13566;SDS011;6855;48.112;11.298;2023-04-15T10:59:35;6.90;;;2.40;;
13566;SDS011;6855;48.112;11.298;2023-04-15T11:02:03;5.00;;;2.10;;
13566;SDS011;6855;48.112;11.298;2023-04-15T11:10:00;5.77;;;2.30;;
13566;SDS011;6855;48.112;11.298;2023-04-15T11:12:32;5.07;;;2.50;;
13566;SDS011;6855;48.112;11.298;2023-04-15T11:17:42;4.40;;;2.10;;
13566;SDS011;6855;48.112;11.298;2023-04-15T11:20:11;3.53;;;1.90;;
13566;SDS011;6855;48.112;11.298;2023-04-15T11:22:45;4.53;;;2.13;;
13566;SDS011;6855;48.112;11.298;2023-04-15T11:25:22;4.50;;;2.93;;
13566;SDS011;6855;48.112;11.298;2023-04-15T11:27:50;4.20;;;2.10;;
13566;SDS011;6855;48.112;11.298;2023-04-15T11:30:19;4.53;;;1.87;;
13566;SDS011;6855;48.112;11.298;2023-04-15T11:32:46;5.07;;;2.33;;
13566;SDS011;6855;48.112;11.298;2023-04-15T11:35:16;4.50;;;2.67;;
13566;SDS011;6855;48.112;11.298;2023-04-15T11:37:43;3.83;;;2.10;;
13566;SDS011;6855;48.112;11.298;2023-04-15T11:40:10;8.33;;;2.20;;
13566;SDS011;6855;48.112;11.298;2023-04-15T11:42:40;7.47;;;2.37;;
13566;SDS011;6855;48.112;11.298;2023-04-15T11:45:08;5.40;;;2.50;;
13566;SDS011;6855;48.112;11.298;2023-04-15T11:47:35;5.17;;;2.40;;
13566;SDS011;6855;48.112;11.298;2023-04-15T11:50:16;11.23;;;3.00;;
13566;SDS011;6855;48.112;11.298;2023-04-15T11:52:52;5.60;;;2.73;;
13566;SDS011;6855;48.112;11.298;2023-04-15T11:55:19;8.70;;;2.53;;
13566;SDS011;6855;48.112;11.298;2023-04-15T11:57:49;7.70;;;3.17;;
13566;SDS011;6855;48.112;11.298;2023-04-15T12:00:16;5.20;;;3.00;;
13566;SDS011;6855;48.112;11.298;2023-04-15T12:02:45;7.90;;;3.83;;
13566;SDS011;6855;48.112;11.298;2023-04-15T12:05:13;9.33;;;4.87;;
13566;SDS011;6855;48.112;11.298;2023-04-15T12:07:58;8.67;;;5.13;;
13566;SDS011;6855;48.112;11.298;2023-04-15T12:10:26;6.60;;;4.10;;
13566;SDS011;6855;48.112;11.298;2023-04-15T12:12:55;5.47;;;3.20;;
13566;SDS011;6855;48.112;11.298;2023-04-15T12:15:23;6.13;;;4.30;;
13566;SDS011;6855;48.112;11.298;2023-04-15T12:17:52;5.57;;;3.10;;
13566;SDS011;6855;48.112;11.298;2023-04-15T12:20:23;5.00;;;3.43;;
13566;SDS011;6855;48.112;11.298;2023-04-15T12:22:51;5.10;;;3.00;;
13566;SDS011;6855;48.112;11.298;2023-04-15T12:25:21;4.10;;;2.63;;
13566;SDS011;6855;48.112;11.298;2023-04-15T12:28:00;8.00;;;2.80;;
13566;SDS011;6855;48.112;11.298;2023-04-15T12:30:27;4.87;;;3.17;;
13566;SDS011;6855;48.112;11.298;2023-04-15T12:32:55;2.93;;;2.37;;
13566;SDS011;6855;48.112;11.298;2023-04-15T12:35:23;3.50;;;2.60;;
13566;SDS011;6855;48.112;11.298;2023-04-15T12:37:51;5.10;;;2.70;;
13566;SDS011;6855;48.112;11.298;2023-04-15T12:40:18;3.30;;;2.37;;
13566;SDS011;6855;48.112;11.298;2023-04-15T12:42:45;7.60;;;2.77;;
13566;SDS011;6855;48.112;11.298;2023-04-15T12:45:14;3.63;;;2.53;;
13566;SDS011;6855;48.112;11.298;2023-04-15T12:47:41;4.17;;;2.80;;
13566;SDS011;6855;48.112;11.298;2023-04-15T12:50:09;2.90;;;2.60;;
13566;SDS011;6855;48.112;11.298;2023-04-15T12:52:36;5.77;;;3.00;;
13566;SDS011;6855;48.112;11.298;2023-04-15T12:55:03;3.80;;;2.40;;
13566;SDS011;6855;48.112;11.298;2023-04-15T12:57:30;6.10;;;3.07;;
13566;SDS011;6855;48.112;11.298;2023-04-15T12:59:58;3.20;;;2.87;;
13566;SDS011;6855;48.112;11.298;2023-04-15T13:02:26;3.57;;;2.90;;
13566;SDS011;6855;48.112;11.298;2023-04-15T13:04:53;6.20;;;2.80;;
13566;SDS011;6855;48.112;11.298;2023-04-15T13:07:22;7.37;;;2.93;;
13566;SDS011;6855;48.112;11.298;2023-04-15T13:09:49;14.00;;;5.13;;
13566;SDS011;6855;48.112;11.298;2023-04-15T13:12:16;8.70;;;3.80;;
13566;SDS011;6855;48.112;11.298;2023-04-15T13:14:43;4.80;;;2.67;;
13566;SDS011;6855;48.112;11.298;2023-04-15T13:17:10;6.60;;;2.30;;
13566;SDS011;6855;48.112;11.298;2023-04-15T13:19:39;3.73;;;2.30;;
13566;SDS011;6855;48.112;11.298;2023-04-15T13:22:09;2.90;;;2.20;;
13566;SDS011;6855;48.112;11.298;2023-04-15T13:24:36;4.43;;;2.30;;
13566;SDS011;6855;48.112;11.298;2023-04-15T13:27:04;3.87;;;2.10;;
13566;SDS011;6855;48.112;11.298;2023-04-15T13:29:32;4.30;;;2.27;;
13566;SDS011;6855;48.112;11.298;2023-04-15T13:31:59;5.77;;;2.17;;
13566;SDS011;6855;48.112;11.298;2023-04-15T13:34:26;5.50;;;2.63;;
13566;SDS011;6855;48.112;11.298;2023-04-15T13:36:55;4.77;;;2.37;;
13566;SDS011;6855;48.112;11.298;2023-04-15T13:39:22;4.03;;;2.00;;
13566;SDS011;6855;48.112;11.298;2023-04-15T13:41:49;3.37;;;2.03;;
13566;SDS011;6855;48.112;11.298;2023-04-15T13:44:16;4.90;;;2.50;;
13566;SDS011;6855;48.112;11.298;2023-04-15T13:46:44;4.07;;;3.03;;
13566;SDS011;6855;48.112;11.298;2023-04-15T13:49:11;8.10;;;3.07;;
13566;SDS011;6855;48.112;11.298;2023-04-15T13:51:38;8.40;;;3.53;;
13566;SDS011;6855;48.112;11.298;2023-04-15T13:54:07;8.07;;;3.40;;
13566;SDS011;6855;48.112;11.298;2023-04-15T13:56:35;5.20;;;2.90;;
13566;SDS011;6855;48.112;11.298;2023-04-15T13:59:02;4.20;;;3.53;;
13566;SDS011;6855;48.112;11.298;2023-04-15T14:01:30;5.03;;;3.10;;
13566;SDS011;6855;48.112;11.298;2023-04-15T14:03:58;6.07;;;3.20;;
13566;SDS011;6855;48.112;11.298;2023-04-15T14:06:25;5.10;;;3.00;;
13566;SDS011;6855;48.112;11.298;2023-04-15T14:08:53;3.27;;;2.97;;
13566;SDS011;6855;48.112;11.298;2023-04-15T14:11:22;6.90;;;2.67;;
13566;SDS011;6855;48.112;11.298;2023-04-15T14:13:49;3.10;;;2.60;;
13566;SDS011;6855;48.112;11.298;2023-04-15T14:16:16;2.70;;;2.30;;
13566;SDS011;6855;48.112;11.298;2023-04-15T14:18:43;2.60;;;2.40;;
13566;SDS011;6855;48.112;11.298;2023-04-15T14:21:13;5.20;;;2.43;;
13566;SDS011;6855;48.112;11.298;2023-04-15T14:23:40;3.70;;;3.00;;
13566;SDS011;6855;48.112;11.298;2023-04-15T14:26:07;3.03;;;2.30;;
13566;SDS011;6855;48.112;11.298;2023-04-15T14:28:36;4.67;;;2.60;;
13566;SDS011;6855;48.112;11.298;2023-04-15T14:31:03;4.20;;;2.63;;
13566;SDS011;6855;48.112;11.298;2023-04-15T14:33:31;2.70;;;2.40;;
13566;SDS011;6855;48.112;11.298;2023-04-15T14:36:00;3.93;;;2.57;;
13566;SDS011;6855;48.112;11.298;2023-04-15T14:38:27;4.67;;;2.13;;
13566;SDS011;6855;48.112;11.298;2023-04-15T14:40:59;2.03;;;1.80;;
13566;SDS011;6855;48.112;11.298;2023-04-15T14:43:26;5.83;;;2.13;;
13566;SDS011;6855;48.112;11.298;2023-04-15T14:45:55;4.63;;;2.07;;
13566;SDS011;6855;48.112;11.298;2023-04-15T14:48:22;3.43;;;2.47;;
13566;SDS011;6855;48.112;11.298;2023-04-15T14:50:50;3.20;;;2.40;;
13566;SDS011;6855;48.112;11.298;2023-04-15T14:53:18;6.00;;;2.20;;
13566;SDS011;6855;48.112;11.298;2023-04-15T14:55:45;3.13;;;2.37;;
13566;SDS011;6855;48.112;11.298;2023-04-15T14:58:14;5.07;;;2.63;;
13566;SDS011;6855;48.112;11.298;2023-04-15T15:00:42;12.07;;;2.60;;